Time;durP1;ratioP1;P1;durP2;ratioP2;P2;SDS_P1;SDS_P2;PMS_P1;PMS_P2;Temp;Humidity;BMP_temperature;BMP_pressure;BME280_temperature;BME280_humidity;BME280_pressure;Samples;Min_cycle;Max_cycle;Signal;HPM_P1;HPM_P2
2022/11/16 00:01:48;;;;;;;3.08;2.65;;;13.10;99.90;;;;;;5003757;28;20197;-76
2022/11/16 00:04:15;;;;;;;3.40;2.88;;;13.10;99.90;;;;;;4974120;28;20224;-76
2022/11/16 00:06:44;;;;;;;3.13;2.72;;;13.10;99.90;;;;;;4966894;28;20206;-76
2022/11/16 00:09:22;;;;;;;3.75;3.08;;;13.10;99.90;;;;;;4977877;28;20224;-76
2022/11/16 00:11:51;;;;;;;3.35;3.05;;;13.10;99.90;;;;;;4995408;28;20214;-76
2022/11/16 00:14:19;;;;;;;3.08;2.78;;;13.10;99.90;;;;;;4981385;28;20217;-76
2022/11/16 00:16:47;;;;;;;3.67;3.28;;;13.10;99.90;;;;;;4986476;28;20198;-76
2022/11/16 00:19:14;;;;;;;2.95;2.65;;;13.10;99.90;;;;;;4976194;28;20601;-76
2022/11/16 00:21:42;;;;;;;3.55;3.25;;;13.00;99.90;;;;;;4976011;28;20220;-76
2022/11/16 00:24:21;;;;;;;3.60;2.75;;;13.10;99.90;;;;;;4973580;28;20205;-76
2022/11/16 00:26:48;;;;;;;3.95;2.90;;;13.00;99.90;;;;;;4991642;28;20708;-76
2022/11/16 00:29:19;;;;;;;3.58;3.25;;;13.00;99.90;;;;;;4967030;28;20206;-76
2022/11/16 00:31:47;;;;;;;3.25;2.90;;;12.90;99.90;;;;;;4982315;28;20213;-76
2022/11/16 00:34:14;;;;;;;4.78;3.20;;;13.00;99.90;;;;;;4984770;28;20201;-76
2022/11/16 00:36:42;;;;;;;3.20;3.00;;;12.90;99.90;;;;;;4994218;28;20198;-76
2022/11/16 00:39:11;;;;;;;4.68;3.40;;;12.90;99.90;;;;;;4980892;28;20201;-76
2022/11/16 00:41:40;;;;;;;3.95;3.53;;;12.90;99.90;;;;;;4987468;28;20193;-76
2022/11/16 00:44:08;;;;;;;5.70;4.03;;;12.90;99.90;;;;;;5007645;28;20197;-76
2022/11/16 00:46:35;;;;;;;4.72;4.05;;;13.00;99.90;;;;;;4971316;28;20220;-76
2022/11/16 00:49:04;;;;;;;4.22;3.83;;;13.00;99.90;;;;;;4968531;28;20213;-76
2022/11/16 00:51:31;;;;;;;5.47;3.90;;;12.90;99.90;;;;;;4981783;28;20220;-76
2022/11/16 00:53:59;;;;;;;5.88;3.88;;;12.90;99.90;;;;;;4968614;28;20232;-76
2022/11/16 00:56:27;;;;;;;4.68;4.07;;;12.90;99.90;;;;;;4965456;28;20201;-76
2022/11/16 00:58:56;;;;;;;6.40;4.10;;;12.90;99.90;;;;;;4966990;28;20205;-76
2022/11/16 01:01:23;;;;;;;5.05;4.55;;;12.90;99.90;;;;;;4979275;28;20193;-74
2022/11/16 01:03:51;;;;;;;4.75;4.15;;;12.90;99.90;;;;;;4969261;28;20197;-76
2022/11/16 01:06:22;;;;;;;7.78;4.28;;;12.90;99.90;;;;;;4967349;28;20224;-76
2022/11/16 01:08:49;;;;;;;4.47;4.07;;;12.90;99.90;;;;;;4983220;28;20216;-76
2022/11/16 01:14:06;;;;;;;4.60;4.20;;;12.80;99.90;;;;;;4995398;28;20194;-76
2022/11/16 01:16:33;;;;;;;5.97;4.60;;;12.70;99.90;;;;;;4970501;28;20632;-76
2022/11/16 01:19:01;;;;;;;5.47;4.28;;;12.80;99.90;;;;;;4982053;28;20208;-76
2022/11/16 01:21:29;;;;;;;5.77;4.30;;;12.80;99.90;;;;;;4984966;28;20200;-76
2022/11/16 01:23:57;;;;;;;6.28;4.03;;;12.80;99.90;;;;;;4976428;28;20194;-76
2022/11/16 01:26:25;;;;;;;4.43;4.03;;;12.70;99.90;;;;;;4975408;28;20225;-76
2022/11/16 01:28:53;;;;;;;4.95;4.40;;;12.70;99.90;;;;;;4993057;28;20204;-76
2022/11/16 01:31:22;;;;;;;6.22;4.03;;;12.60;99.90;;;;;;4982903;28;20204;-76
2022/11/16 01:33:51;;;;;;;5.18;4.38;;;12.60;99.90;;;;;;5004938;28;20559;-76
2022/11/16 01:36:23;;;;;;;5.68;4.13;;;12.60;99.90;;;;;;4972320;28;20221;-76
2022/11/16 01:38:51;;;;;;;5.45;4.15;;;12.50;99.90;;;;;;4982369;28;20194;-76
2022/11/16 01:41:23;;;;;;;6.85;4.78;;;12.50;99.90;;;;;;4987032;28;20205;-76
2022/11/16 01:43:56;;;;;;;6.05;5.45;;;12.50;99.90;;;;;;4970911;28;20216;-76
2022/11/16 01:46:30;;;;;;;5.28;4.53;;;12.50;99.90;;;;;;4971913;28;20193;-76
2022/11/16 01:49:03;;;;;;;5.53;4.65;;;12.50;99.90;;;;;;5020165;28;20201;-76
2022/11/16 01:51:31;;;;;;;5.32;4.82;;;12.50;99.90;;;;;;4970948;28;20205;-76
2022/11/16 01:54:01;;;;;;;5.43;4.93;;;12.50;99.90;;;;;;5019262;28;20228;-76
2022/11/16 01:56:31;;;;;;;4.90;4.40;;;12.50;99.90;;;;;;4965596;28;20678;-76
2022/11/16 01:59:15;;;;;;;5.77;5.07;;;12.50;99.90;;;;;;5048615;28;20194;-76
2022/11/16 02:01:44;;;;;;;7.10;5.10;;;12.50;99.90;;;;;;4979056;28;20197;-76
2022/11/16 02:04:12;;;;;;;6.30;4.85;;;12.50;99.90;;;;;;5008649;28;20197;-76
2022/11/16 02:06:56;;;;;;;5.82;4.40;;;12.40;99.90;;;;;;4987126;28;20197;-75
2022/11/16 02:09:53;;;;;;;5.47;4.20;;;12.50;99.90;;;;;;4965143;28;20205;-76
2022/11/16 02:12:53;;;;;;;5.10;4.60;;;12.50;99.90;;;;;;4962091;28;20568;-76
2022/11/16 02:15:33;;;;;;;6.23;4.63;;;12.50;99.90;;;;;;4992203;28;20236;-76
2022/11/16 02:18:31;;;;;;;4.97;4.23;;;12.40;99.90;;;;;;4977932;28;20206;-76
2022/11/16 02:21:20;;;;;;;4.70;4.20;;;12.40;99.90;;;;;;4979853;28;20192;-75
2022/11/16 02:24:11;;;;;;;7.65;4.80;;;12.40;99.90;;;;;;4966445;28;20197;-76
2022/11/16 02:26:52;;;;;;;5.53;4.83;;;12.40;99.90;;;;;;4974400;28;20205;-76
2022/11/16 02:29:24;;;;;;;5.47;4.93;;;12.40;99.90;;;;;;4978461;28;20206;-76
2022/11/16 02:32:01;;;;;;;5.17;4.60;;;12.40;99.90;;;;;;4984620;28;20201;-78
2022/11/16 02:34:32;;;;;;;7.73;4.93;;;12.40;99.90;;;;;;4973716;28;20216;-78
2022/11/16 02:37:02;;;;;;;6.83;4.73;;;12.30;99.90;;;;;;4970711;28;20197;-77
2022/11/16 02:39:32;;;;;;;5.20;4.70;;;12.30;99.90;;;;;;4990037;28;20200;-78
2022/11/16 02:42:02;;;;;;;6.07;4.87;;;12.30;99.90;;;;;;4982264;28;20205;-78
2022/11/16 02:44:35;;;;;;;5.97;5.33;;;12.30;99.90;;;;;;4991274;28;20713;-77
2022/11/16 02:47:07;;;;;;;6.70;5.27;;;12.30;99.90;;;;;;4985529;28;20197;-78
2022/11/16 02:49:40;;;;;;;6.30;4.90;;;12.30;99.90;;;;;;4971464;28;20197;-78
2022/11/16 02:52:09;;;;;;;5.33;4.83;;;12.30;99.90;;;;;;4969068;28;20208;-78
2022/11/16 02:54:37;;;;;;;5.80;5.00;;;12.30;99.90;;;;;;4985251;28;20221;-77
2022/11/16 02:57:28;;;;;;;7.30;5.07;;;12.30;99.90;;;;;;4971731;28;20201;-78
2022/11/16 02:59:58;;;;;;;6.43;4.87;;;12.30;99.90;;;;;;4967444;28;20209;-78
2022/11/16 03:02:32;;;;;;;6.00;5.40;;;12.30;99.90;;;;;;4997932;28;20569;-78
2022/11/16 03:05:05;;;;;;;6.13;4.53;;;12.30;99.90;;;;;;4994510;28;20248;-78
2022/11/16 03:07:45;;;;;;;4.73;3.43;;;12.30;99.90;;;;;;4969099;28;20196;-78
2022/11/16 03:11:58;;;;;;;4.47;4.07;;;12.30;99.90;;;;;;4986747;28;20193;-77
2022/11/16 03:13:05;;;;;;;5.20;4.03;;;12.30;99.90;;;;;;5001971;28;20226;-77
2022/11/16 03:15:38;;;;;;;4.53;4.10;;;12.30;99.90;;;;;;4980482;28;20225;-78
2022/11/16 03:18:07;;;;;;;5.43;3.53;;;12.30;99.90;;;;;;4976637;28;20202;-77
2022/11/16 03:20:37;;;;;;;4.10;3.13;;;12.30;99.90;;;;;;4986915;28;20194;-77
2022/11/16 03:23:08;;;;;;;3.40;3.10;;;12.40;99.90;;;;;;5054406;28;20197;-78
2022/11/16 03:25:40;;;;;;;4.17;3.33;;;12.40;99.90;;;;;;5052115;28;20556;-78
2022/11/16 03:28:14;;;;;;;3.10;2.80;;;12.30;99.90;;;;;;4967927;28;20208;-78
2022/11/16 03:30:49;;;;;;;3.67;3.00;;;12.30;99.90;;;;;;4984626;28;20193;-78
2022/11/16 03:33:20;;;;;;;3.83;3.43;;;12.30;99.90;;;;;;4983844;28;20227;-78
2022/11/16 03:35:57;;;;;;;3.80;3.37;;;12.30;99.90;;;;;;4980946;28;20221;-78
2022/11/16 03:38:27;;;;;;;3.60;2.80;;;12.30;99.90;;;;;;4960237;28;20208;-75
2022/11/16 03:40:59;;;;;;;3.63;2.80;;;12.30;99.90;;;;;;4968391;28;20197;-77
2022/11/16 03:43:32;;;;;;;3.30;3.00;;;12.30;99.90;;;;;;4985137;28;20189;-77
2022/11/16 03:46:02;;;;;;;3.67;2.70;;;12.30;99.90;;;;;;4969109;28;20217;-77
2022/11/16 03:48:35;;;;;;;3.53;3.00;;;12.30;99.90;;;;;;4987432;28;20193;-77
2022/11/16 03:51:05;;;;;;;2.87;2.63;;;12.30;99.90;;;;;;4967337;28;20656;-78
2022/11/16 03:53:33;;;;;;;2.87;2.50;;;12.30;99.90;;;;;;5008721;28;20212;-77
2022/11/16 03:56:00;;;;;;;2.40;2.20;;;12.30;99.90;;;;;;4984708;28;20238;-77
2022/11/16 03:58:28;;;;;;;2.40;2.20;;;12.30;99.90;;;;;;4980496;28;20208;-78
2022/11/16 04:00:56;;;;;;;2.63;2.13;;;12.30;99.90;;;;;;4967897;28;20681;-78
2022/11/16 04:03:25;;;;;;;3.67;2.33;;;12.30;99.90;;;;;;4986849;28;20201;-78
2022/11/16 04:25:39;;;;;;;2.50;2.27;;;12.30;99.90;;;;;;4982791;28;20213;-77
2022/11/16 04:28:13;;;;;;;1.57;1.47;;;12.30;99.90;;;;;;5034029;28;20201;-78
2022/11/16 04:39:06;;;;;;;1.50;1.40;;;12.30;99.90;;;;;;5000845;28;20198;-77
2022/11/16 04:44:20;;;;;;;1.63;1.53;;;12.20;99.90;;;;;;4972917;28;20193;-77
2022/11/16 04:47:06;;;;;;;1.00;1.00;;;12.20;99.90;;;;;;4995499;28;20190;-77
2022/11/16 04:49:35;;;;;;;2.80;1.40;;;12.20;99.90;;;;;;4971784;28;20193;-77
2022/11/16 04:52:04;;;;;;;2.30;1.63;;;12.20;99.90;;;;;;5032745;28;20271;-77
2022/11/16 04:54:32;;;;;;;1.67;1.53;;;12.20;99.90;;;;;;4984916;28;20221;-77
2022/11/16 04:56:59;;;;;;;1.60;1.23;;;12.10;99.90;;;;;;4968609;28;20212;-77
2022/11/16 04:59:27;;;;;;;1.77;1.40;;;12.10;99.90;;;;;;4994185;28;20205;-77
2022/11/16 05:02:09;;;;;;;1.70;1.50;;;12.10;99.90;;;;;;4963085;28;20674;-77
2022/11/16 05:04:44;;;;;;;1.53;1.33;;;12.10;99.90;;;;;;4961643;28;20222;-77
2022/11/16 05:07:15;;;;;;;3.30;1.50;;;12.10;99.90;;;;;;4975679;28;20189;-77
2022/11/16 05:09:46;;;;;;;1.90;1.50;;;12.10;99.90;;;;;;4985337;28;20201;-77
2022/11/16 05:12:16;;;;;;;2.23;1.40;;;12.10;99.90;;;;;;4970350;28;20197;-77
2022/11/16 05:14:45;;;;;;;1.97;1.60;;;12.10;99.90;;;;;;4997928;28;20221;-78
2022/11/16 05:17:16;;;;;;;2.43;1.90;;;12.10;99.90;;;;;;4986426;28;20204;-77
2022/11/16 05:22:34;;;;;;;1.90;1.80;;;12.10;99.90;;;;;;4973187;28;20189;-78
2022/11/16 05:25:03;;;;;;;1.57;1.47;;;12.10;99.90;;;;;;4987552;28;20220;-77
2022/11/16 05:27:31;;;;;;;1.97;1.77;;;12.10;99.90;;;;;;4988776;28;20201;-77
2022/11/16 05:29:58;;;;;;;3.03;1.80;;;12.10;99.90;;;;;;5016181;28;20208;-78
2022/11/16 05:32:27;;;;;;;1.87;1.67;;;12.10;99.90;;;;;;4961870;28;20555;-77
2022/11/16 05:34:59;;;;;;;1.93;1.63;;;12.10;99.90;;;;;;5053486;28;20240;-77
2022/11/16 05:37:28;;;;;;;2.37;1.63;;;12.10;99.90;;;;;;4967900;28;20197;-77
2022/11/16 05:39:56;;;;;;;3.20;1.70;;;12.10;99.90;;;;;;5052824;28;20197;-77
2022/11/16 05:42:30;;;;;;;2.27;1.93;;;12.10;99.90;;;;;;4971604;28;20201;-77
2022/11/16 05:44:58;;;;;;;1.60;1.50;;;12.10;99.90;;;;;;4968783;28;20217;-77
2022/11/16 05:47:26;;;;;;;2.00;1.53;;;12.10;99.90;;;;;;4971757;28;20207;-77
2022/11/16 05:49:53;;;;;;;3.00;1.60;;;12.10;99.90;;;;;;4964886;28;20202;-77
2022/11/16 05:52:22;;;;;;;2.30;1.77;;;12.00;99.90;;;;;;4987311;28;20693;-77
2022/11/16 05:54:51;;;;;;;1.50;1.40;;;12.10;99.90;;;;;;4971698;28;20229;-77
2022/11/16 05:57:20;;;;;;;2.37;1.50;;;12.10;99.90;;;;;;4979534;28;20197;-77
2022/11/16 05:59:47;;;;;;;1.90;1.33;;;12.10;99.90;;;;;;4986778;28;20647;-77
2022/11/16 06:02:15;;;;;;;2.53;1.67;;;12.10;99.90;;;;;;4977483;28;20197;-78
2022/11/16 06:04:42;;;;;;;1.60;1.47;;;12.10;99.90;;;;;;4985839;28;20221;-77
2022/11/16 06:07:10;;;;;;;2.43;1.60;;;12.10;99.90;;;;;;4971729;28;20201;-77
2022/11/16 06:09:37;;;;;;;1.67;1.50;;;12.00;99.90;;;;;;4986350;28;20677;-77
2022/11/16 06:12:14;;;;;;;1.60;1.50;;;12.00;99.90;;;;;;4979152;28;20204;-77
2022/11/16 06:14:42;;;;;;;3.97;1.63;;;11.90;99.90;;;;;;4957473;28;20594;-77
2022/11/16 06:17:13;;;;;;;2.77;1.73;;;11.90;99.90;;;;;;4968319;28;20206;-77
2022/11/16 06:19:41;;;;;;;1.90;1.37;;;11.90;99.90;;;;;;5042476;28;20208;-77
2022/11/16 06:22:09;;;;;;;1.48;1.38;;;11.90;99.90;;;;;;4985408;28;20205;-76
2022/11/16 06:24:39;;;;;;;3.00;1.40;;;11.90;99.90;;;;;;4986855;28;20224;-79
2022/11/16 06:27:07;;;;;;;1.80;1.70;;;11.90;99.90;;;;;;4985762;28;20200;-78
2022/11/16 06:29:50;;;;;;;3.03;1.50;;;11.90;99.90;;;;;;4976654;28;20203;-77
2022/11/16 06:32:19;;;;;;;1.93;1.30;;;11.90;99.90;;;;;;4975172;28;20193;-81
2022/11/16 06:34:46;;;;;;;2.70;1.50;;;11.90;99.90;;;;;;4975158;28;20224;-80
2022/11/16 06:37:14;;;;;;;1.83;1.30;;;11.90;99.90;;;;;;4984766;28;20206;-80
2022/11/16 06:39:45;;;;;;;1.60;1.50;;;11.90;99.90;;;;;;4976324;28;20197;-80
2022/11/16 06:42:13;;;;;;;2.83;2.00;;;11.90;99.90;;;;;;4973980;28;20197;-81
2022/11/16 06:44:41;;;;;;;2.30;1.80;;;12.00;99.90;;;;;;4981819;28;20220;-81
2022/11/16 06:47:11;;;;;;;2.50;1.80;;;12.00;99.90;;;;;;4996493;28;20197;-80
2022/11/16 06:49:41;;;;;;;3.80;2.30;;;12.00;99.90;;;;;;4991654;28;20655;-80
2022/11/16 06:52:15;;;;;;;3.23;2.30;;;12.00;99.90;;;;;;4996595;28;20205;-80
2022/11/16 06:54:42;;;;;;;3.33;2.20;;;11.90;99.90;;;;;;5022584;28;20703;-82
2022/11/16 06:57:12;;;;;;;3.67;2.90;;;12.00;99.90;;;;;;4971708;28;20702;-82
2022/11/16 06:59:42;;;;;;;3.13;2.73;;;12.00;99.90;;;;;;4988324;28;20201;-82
2022/11/16 07:02:10;;;;;;;4.18;2.80;;;12.10;99.90;;;;;;4987002;28;20197;-79
2022/11/16 07:04:39;;;;;;;3.83;3.05;;;12.10;99.90;;;;;;4964128;28;20598;-80
2022/11/16 07:07:07;;;;;;;3.60;3.30;;;12.00;99.90;;;;;;4969210;28;20559;-80
2022/11/16 07:09:37;;;;;;;5.47;3.73;;;12.00;99.90;;;;;;4985277;28;20211;-83
2022/11/16 07:12:04;;;;;;;5.67;4.17;;;12.00;99.90;;;;;;4971913;28;20197;-80
2022/11/16 07:14:36;;;;;;;5.50;4.43;;;12.00;99.90;;;;;;4999052;28;20305;-80
2022/11/16 07:17:07;;;;;;;5.37;3.83;;;12.00;99.90;;;;;;4983424;28;20216;-80
2022/11/16 07:19:35;;;;;;;5.60;4.60;;;12.10;99.90;;;;;;5053552;28;20247;-81
2022/11/16 07:22:07;;;;;;;7.30;5.33;;;12.00;99.90;;;;;;4984257;28;20212;-82
2022/11/16 07:24:34;;;;;;;8.00;5.07;;;12.00;99.90;;;;;;4972954;28;20221;-81
2022/11/16 07:27:03;;;;;;;8.33;5.60;;;12.00;99.90;;;;;;4974800;28;20196;-81
2022/11/16 07:29:35;;;;;;;7.63;5.57;;;12.10;99.90;;;;;;4985304;28;20870;-80
2022/11/16 07:32:21;;;;;;;9.60;4.80;;;12.00;99.90;;;;;;5012520;28;20205;-81
2022/11/16 07:35:02;;;;;;;8.70;5.30;;;12.00;99.90;;;;;;4992468;28;20239;-82
2022/11/16 07:37:34;;;;;;;6.30;5.00;;;12.10;99.90;;;;;;4989387;28;20209;-82
2022/11/16 07:40:02;;;;;;;6.93;4.83;;;12.10;99.90;;;;;;5049315;28;20212;-84
2022/11/16 07:42:31;;;;;;;6.07;4.70;;;12.10;99.90;;;;;;4972579;28;20201;-83
2022/11/16 07:45:09;;;;;;;7.20;5.43;;;12.10;99.90;;;;;;4970436;28;20231;-83
2022/11/16 07:47:40;;;;;;;6.93;4.43;;;12.10;99.90;;;;;;4970120;28;20201;-83
2022/11/16 07:50:14;;;;;;;6.30;4.60;;;12.10;99.90;;;;;;5004498;28;20197;-83
2022/11/16 07:52:45;;;;;;;5.60;4.07;;;12.10;99.90;;;;;;4983913;28;20201;-83
2022/11/16 07:55:20;;;;;;;4.43;4.00;;;12.20;99.90;;;;;;5011753;28;20221;-83
2022/11/16 07:57:49;;;;;;;6.40;4.70;;;12.20;99.90;;;;;;4977432;28;20201;-83
2022/11/16 08:00:18;;;;;;;5.87;4.50;;;12.30;99.90;;;;;;4965174;28;20567;-83
2022/11/16 08:02:55;;;;;;;10.15;3.58;;;12.20;99.90;;;;;;4987801;28;20212;-83
2022/11/16 08:05:23;;;;;;;7.95;4.40;;;12.10;99.90;;;;;;4970849;28;20220;-82
2022/11/16 08:07:53;;;;;;;5.17;3.43;;;12.10;99.90;;;;;;4978859;28;20208;-81
2022/11/16 08:10:24;;;;;;;5.50;3.00;;;12.00;99.90;;;;;;4966044;28;20210;-84
2022/11/16 08:12:53;;;;;;;6.97;3.00;;;11.90;99.90;;;;;;4995858;28;20197;-83
2022/11/16 08:15:23;;;;;;;8.30;3.00;;;11.90;99.90;;;;;;4983183;28;20225;-83
2022/11/16 08:17:57;;;;;;;5.40;2.77;;;11.80;99.90;;;;;;4987246;28;20288;-82
2022/11/16 08:20:26;;;;;;;4.70;2.60;;;11.70;99.90;;;;;;4964313;28;20205;-82
2022/11/16 08:23:01;;;;;;;5.77;2.90;;;11.70;99.90;;;;;;5013330;28;20674;-82
2022/11/16 08:25:33;;;;;;;5.30;2.30;;;11.70;99.90;;;;;;4983189;28;20212;-80
2022/11/16 08:28:01;;;;;;;5.60;2.50;;;11.70;99.90;;;;;;4970754;28;20193;-81
2022/11/16 08:30:29;;;;;;;5.90;2.47;;;11.60;99.90;;;;;;4987682;28;20202;-81
2022/11/16 08:32:57;;;;;;;7.30;2.20;;;11.60;99.90;;;;;;4967842;28;20197;-81
2022/11/16 08:35:26;;;;;;;6.17;2.87;;;11.60;99.90;;;;;;4970788;28;20220;-81
2022/11/16 08:37:54;;;;;;;5.80;2.43;;;11.60;99.90;;;;;;5059755;28;20208;-81
2022/11/16 08:40:22;;;;;;;3.70;2.37;;;11.60;99.90;;;;;;4990250;28;20206;-81
2022/11/16 08:42:55;;;;;;;6.33;2.63;;;11.60;99.90;;;;;;4992721;28;20197;-81
2022/11/16 08:45:23;;;;;;;5.63;2.47;;;11.70;99.90;;;;;;4992530;28;20217;-81
2022/11/16 08:47:52;;;;;;;4.23;2.30;;;11.80;99.90;;;;;;4980073;28;20205;-82
2022/11/16 08:50:21;;;;;;;4.97;2.60;;;11.90;99.90;;;;;;4978476;28;20674;-82
2022/11/16 08:52:48;;;;;;;6.07;2.50;;;12.00;99.90;;;;;;4993429;28;20219;-82
2022/11/16 08:55:17;;;;;;;5.43;2.23;;;12.00;99.90;;;;;;4980956;28;20221;-81
2022/11/16 08:57:46;;;;;;;6.53;2.77;;;12.00;99.90;;;;;;5002971;28;20204;-81
2022/11/16 09:00:18;;;;;;;4.97;2.63;;;12.00;99.90;;;;;;4971751;28;20205;-81
2022/11/16 09:02:45;;;;;;;8.47;3.07;;;12.10;99.90;;;;;;4984105;28;20197;-81
2022/11/16 09:05:13;;;;;;;5.23;2.20;;;12.10;99.90;;;;;;4978266;28;20217;-81
2022/11/16 09:07:42;;;;;;;4.97;2.53;;;12.00;99.90;;;;;;4988203;28;20585;-81
2022/11/16 09:10:10;;;;;;;7.60;2.50;;;12.10;99.90;;;;;;4970550;28;20197;-81
2022/11/16 09:12:38;;;;;;;6.73;2.70;;;12.20;99.90;;;;;;4992998;28;20714;-81
2022/11/16 09:15:08;;;;;;;3.10;2.50;;;12.30;99.90;;;;;;4975861;28;20232;-81
2022/11/16 09:17:36;;;;;;;5.60;2.73;;;12.30;99.90;;;;;;4982780;28;20194;-81
2022/11/16 09:20:05;;;;;;;3.10;2.20;;;12.40;99.90;;;;;;4980802;28;20193;-82
2022/11/16 09:22:32;;;;;;;6.10;2.40;;;12.40;99.90;;;;;;4987229;28;20221;-81
2022/11/16 09:25:00;;;;;;;5.37;2.30;;;12.40;99.90;;;;;;4985008;28;20221;-82
2022/11/16 09:27:32;;;;;;;4.78;2.45;;;12.50;99.90;;;;;;4988590;28;20204;-80
2022/11/16 09:30:00;;;;;;;5.65;1.98;;;12.50;99.90;;;;;;4984222;28;20213;-81
2022/11/16 09:32:29;;;;;;;6.27;2.33;;;12.50;99.90;;;;;;4988916;28;20204;-81
2022/11/16 09:34:57;;;;;;;4.00;1.80;;;12.60;99.90;;;;;;4990778;28;20225;-81
2022/11/16 09:37:25;;;;;;;4.23;1.70;;;12.60;99.90;;;;;;4975844;28;20220;-81
2022/11/16 09:39:58;;;;;;;4.27;1.70;;;12.50;99.90;;;;;;4982162;28;20205;-81
2022/11/16 09:42:35;;;;;;;5.73;1.70;;;12.50;99.90;;;;;;4986496;28;20204;-83
2022/11/16 09:45:07;;;;;;;5.60;1.90;;;12.60;99.90;;;;;;4986818;28;20224;-82
2022/11/16 09:47:48;;;;;;;6.20;1.90;;;12.60;99.90;;;;;;4997655;28;20212;-82
2022/11/16 09:50:36;;;;;;;6.07;2.27;;;12.60;99.90;;;;;;4988816;28;20208;-82
2022/11/16 09:53:32;;;;;;;7.72;2.08;;;12.70;99.90;;;;;;4970059;28;20205;-82
2022/11/16 09:56:04;;;;;;;8.93;2.38;;;12.80;99.90;;;;;;4981907;28;20225;-82
2022/11/16 09:58:35;;;;;;;6.53;2.08;;;12.80;99.90;;;;;;4988273;28;20749;-82
2022/11/16 10:01:11;;;;;;;5.53;1.75;;;13.00;99.90;;;;;;5000286;28;20201;-83
2022/11/16 10:03:45;;;;;;;5.15;1.50;;;13.00;99.90;;;;;;4985856;28;20205;-82
2022/11/16 10:06:20;;;;;;;3.75;1.58;;;13.00;99.90;;;;;;4973261;28;20213;-83
2022/11/16 10:08:50;;;;;;;4.03;1.38;;;13.00;99.90;;;;;;4993389;28;20212;-83
2022/11/16 10:11:45;;;;;;;3.38;1.30;;;13.00;99.90;;;;;;5001547;28;20211;-83
2022/11/16 10:14:48;;;;;;;4.35;1.30;;;13.00;99.90;;;;;;4971650;28;20202;-83
2022/11/16 10:17:26;;;;;;;6.03;1.65;;;13.10;99.90;;;;;;4971991;28;20220;-82
2022/11/16 10:20:16;;;;;;;3.78;1.73;;;12.90;99.90;;;;;;4973910;28;20193;-83
2022/11/16 10:22:58;;;;;;;4.60;1.50;;;12.70;99.90;;;;;;4991141;28;20201;-83
2022/11/16 10:25:32;;;;;;;3.63;1.63;;;12.80;99.90;;;;;;4967405;28;20695;-82
2022/11/16 10:28:26;;;;;;;2.70;1.57;;;12.70;99.90;;;;;;4970142;28;20212;-87
2022/11/16 10:30:59;;;;;;;4.63;1.35;;;12.60;99.90;;;;;;4971398;28;20201;-82
2022/11/16 10:33:34;;;;;;;5.20;1.40;;;12.50;99.90;;;;;;4990502;28;20209;-82
2022/11/16 10:36:08;;;;;;;6.03;1.67;;;12.60;99.90;;;;;;5050360;28;20561;-82
2022/11/16 10:38:36;;;;;;;4.68;2.20;;;12.60;99.90;;;;;;4985628;28;20212;-82
2022/11/16 10:41:25;;;;;;;5.70;1.70;;;12.80;99.90;;;;;;4976267;28;20201;-83
2022/11/16 10:43:53;;;;;;;6.30;1.80;;;12.80;99.90;;;;;;4986264;28;20208;-83
2022/11/16 10:46:24;;;;;;;3.33;1.38;;;12.90;99.90;;;;;;4989885;28;20217;-83
2022/11/16 10:49:02;;;;;;;3.83;2.13;;;13.20;99.90;;;;;;4973847;28;20663;-82
2022/11/16 10:51:30;;;;;;;3.92;1.48;;;13.30;99.90;;;;;;4997616;22;20228;-81
2022/11/16 10:54:13;;;;;;;3.65;1.50;;;13.60;99.90;;;;;;5054501;28;20197;-81
2022/11/16 10:56:44;;;;;;;3.40;1.20;;;13.80;99.90;;;;;;5000370;28;20670;-81
2022/11/16 10:59:13;;;;;;;4.28;1.30;;;13.90;99.90;;;;;;4978774;28;20208;-81
2022/11/16 11:01:42;;;;;;;3.42;1.33;;;14.30;99.90;;;;;;4972226;28;20224;-81
2022/11/16 11:04:16;;;;;;;2.92;1.33;;;14.30;99.90;;;;;;4966548;28;20210;-81
2022/11/16 11:06:45;;;;;;;5.63;1.00;;;13.90;99.90;;;;;;5010623;28;20204;-81
2022/11/16 11:09:28;;;;;;;3.10;1.35;;;13.60;99.90;;;;;;4980056;28;20197;-81
2022/11/16 11:15:00;;;;;;;3.30;1.42;;;13.60;99.90;;;;;;5021316;28;20197;-79
2022/11/16 11:17:27;;;;;;;3.30;1.20;;;14.00;99.90;;;;;;4969590;28;20216;-79
2022/11/16 11:20:00;;;;;;;1.15;1.02;;;14.30;99.90;;;;;;4970168;28;20197;-80
2022/11/16 11:22:30;;;;;;;2.38;1.13;;;14.20;99.90;;;;;;5004496;28;20307;-81
2022/11/16 11:24:58;;;;;;;4.03;1.50;;;14.20;99.60;;;;;;4971949;28;20590;-80
2022/11/16 11:27:32;;;;;;;6.43;1.80;;;14.40;99.30;;;;;;4971867;28;20197;-80
2022/11/16 11:30:01;;;;;;;4.57;1.33;;;14.50;99.20;;;;;;4992323;28;20212;-81
2022/11/16 11:32:33;;;;;;;3.42;1.38;;;15.30;99.30;;;;;;5012242;28;20300;-81
2022/11/16 11:35:02;;;;;;;4.20;1.20;;;15.10;97.40;;;;;;4972288;28;20562;-82
2022/11/16 11:37:37;;;;;;;4.78;1.25;;;14.90;97.50;;;;;;5001956;28;20237;-81
2022/11/16 11:40:21;;;;;;;4.15;1.25;;;15.00;97.50;;;;;;4991699;28;20670;-81
2022/11/16 11:42:58;;;;;;;4.68;1.20;;;15.30;96.40;;;;;;4992203;28;20214;-81
2022/11/16 11:45:32;;;;;;;3.08;1.33;;;16.30;97.00;;;;;;5012039;28;20201;-81
2022/11/16 11:48:02;;;;;;;2.28;1.00;;;16.00;96.20;;;;;;4970696;28;20205;-81
2022/11/16 11:50:42;;;;;;;4.47;1.23;;;15.50;95.80;;;;;;4987756;28;20190;-81
2022/11/16 11:53:21;;;;;;;2.92;1.20;;;16.00;96.00;;;;;;4993477;28;20225;-81
2022/11/16 11:55:54;;;;;;;3.55;1.40;;;16.30;94.40;;;;;;4990055;28;20203;-81
2022/11/16 11:58:26;;;;;;;1.95;1.13;;;16.50;94.10;;;;;;5026171;28;20228;-81
2022/11/16 12:01:06;;;;;;;4.55;1.17;;;15.90;94.70;;;;;;4970418;28;20205;-81
2022/11/16 12:03:50;;;;;;;3.22;0.90;;;16.20;94.20;;;;;;5005427;28;20197;-81
2022/11/16 12:06:22;;;;;;;4.57;1.30;;;16.00;93.80;;;;;;5008188;28;20216;-80
2022/11/16 12:09:25;;;;;;;5.18;1.15;;;15.90;94.80;;;;;;4972683;28;20205;-80
2022/11/16 12:12:09;;;;;;;3.83;1.00;;;15.70;94.10;;;;;;4970323;28;20225;-80
2022/11/16 12:14:54;;;;;;;4.25;1.15;;;15.40;94.00;;;;;;4983571;28;20571;-81
2022/11/16 12:17:34;;;;;;;5.40;1.20;;;14.90;94.90;;;;;;4986957;28;20209;-81
2022/11/16 12:20:29;;;;;;;4.13;1.63;;;14.80;95.00;;;;;;4981500;28;20212;-80
2022/11/16 12:23:31;;;;;;;3.65;1.67;;;14.70;96.20;;;;;;4973512;28;20581;-80
2022/11/16 12:26:06;;;;;;;3.60;1.35;;;15.60;95.80;;;;;;5049919;28;20197;-80
2022/11/16 12:28:45;;;;;;;5.45;1.42;;;16.20;92.90;;;;;;5036155;28;20200;-80
2022/11/16 12:31:45;;;;;;;3.65;1.08;;;16.00;93.40;;;;;;4960447;28;20232;-80
2022/11/16 12:34:26;;;;;;;3.60;1.60;;;15.70;94.00;;;;;;4967145;28;20201;-80
2022/11/16 12:37:00;;;;;;;3.63;1.17;;;15.70;93.80;;;;;;4993072;28;20216;-80
2022/11/16 12:39:34;;;;;;;5.38;0.95;;;16.10;92.50;;;;;;5023138;28;20185;-80
2022/11/16 12:42:29;;;;;;;3.85;1.63;;;16.50;92.00;;;;;;4970344;28;20701;-83
2022/11/16 12:45:17;;;;;;;3.03;0.77;;;16.70;92.50;;;;;;5026962;28;20196;-80
2022/11/16 12:48:02;;;;;;;2.13;1.05;;;16.90;92.00;;;;;;4970116;28;20563;-80
2022/11/16 12:50:44;;;;;;;3.58;1.38;;;16.50;91.50;;;;;;4968232;28;20209;-81
2022/11/16 12:53:22;;;;;;;4.40;1.25;;;16.50;92.00;;;;;;4995798;28;20228;-81
2022/11/16 12:56:00;;;;;;;4.40;1.13;;;16.50;92.00;;;;;;4993610;28;20193;-81
2022/11/16 12:58:39;;;;;;;3.13;1.10;;;17.20;91.30;;;;;;5008070;28;20227;-81
2022/11/16 13:01:15;;;;;;;4.47;1.60;;;18.10;88.20;;;;;;4971701;28;20196;-82
2022/11/16 13:03:49;;;;;;;3.08;0.88;;;17.10;89.40;;;;;;4980132;28;20205;-81
2022/11/16 13:06:19;;;;;;;2.97;1.13;;;18.60;87.60;;;;;;5043799;28;20197;-81
2022/11/16 13:09:03;;;;;;;4.45;1.30;;;18.00;85.40;;;;;;5015221;28;20208;-80
2022/11/16 13:11:35;;;;;;;6.10;1.13;;;18.40;84.60;;;;;;4981577;28;20226;-81
2022/11/16 13:14:07;;;;;;;2.72;0.75;;;17.50;88.00;;;;;;4980526;28;20212;-80
2022/11/16 13:16:35;;;;;;;2.63;0.75;;;17.10;88.30;;;;;;4972667;28;20197;-80
2022/11/16 13:19:05;;;;;;;3.40;1.00;;;17.00;90.10;;;;;;4960870;28;20236;-80
2022/11/16 13:21:43;;;;;;;2.92;1.10;;;17.20;88.00;;;;;;4968155;28;20217;-81
2022/11/16 13:24:31;;;;;;;4.13;0.90;;;17.80;88.80;;;;;;4963019;28;20236;-81
2022/11/16 13:27:12;;;;;;;4.53;1.05;;;17.50;86.80;;;;;;4972404;28;20216;-81
2022/11/16 13:29:48;;;;;;;2.72;1.05;;;18.10;84.30;;;;;;4973347;28;20223;-81
2022/11/16 13:32:22;;;;;;;4.50;1.05;;;17.80;84.00;;;;;;4973681;28;20231;-80
2022/11/16 13:34:50;;;;;;;3.10;1.10;;;18.40;84.60;;;;;;4971538;28;20201;-80
2022/11/16 13:37:47;;;;;;;3.38;1.30;;;17.20;85.00;;;;;;4972689;28;20229;-81
2022/11/16 13:40:27;;;;;;;3.60;0.90;;;18.60;82.40;;;;;;5002637;28;20640;-79
2022/11/16 13:43:17;;;;;;;3.05;1.00;;;19.90;81.20;;;;;;4978487;28;20571;-80
2022/11/16 13:45:55;;;;;;;3.85;0.90;;;18.50;76.90;;;;;;4972352;28;20204;-82
2022/11/16 13:48:29;;;;;;;2.88;0.88;;;18.80;79.00;;;;;;4998883;28;20189;-80
2022/11/16 13:50:58;;;;;;;2.72;1.08;;;19.20;76.50;;;;;;5008636;28;20197;-82
2022/11/16 13:53:33;;;;;;;2.70;1.10;;;18.90;76.60;;;;;;5002992;28;20201;-81
2022/11/16 13:56:02;;;;;;;5.35;1.13;;;18.40;79.50;;;;;;4985058;28;20203;-80
2022/11/16 13:58:33;;;;;;;5.65;1.40;;;17.80;79.30;;;;;;4966277;28;20225;-78